Time;durP1;ratioP1;P1;durP2;ratioP2;P2;SDS_P1;SDS_P2;PMS_P1;PMS_P2;Temp;Humidity;BMP_temperature;BMP_pressure;BME280_temperature;BME280_humidity;BME280_pressure;Samples;Min_cycle;Max_cycle;Signal;HPM_P1;HPM_P2
2023/10/23 00:02:05;;;;;;;4.93;2.30;;;13.10;99.90;;;;;;5114326;28;20874;-60
2023/10/23 00:04:33;;;;;;;1.93;1.73;;;13.00;99.90;;;;;;5114539;28;20448;-60
2023/10/23 00:06:59;;;;;;;1.93;1.73;;;13.00;99.90;;;;;;5114384;28;20540;-61
2023/10/23 00:09:26;;;;;;;3.90;2.10;;;13.00;99.90;;;;;;5114158;28;20540;-60
2023/10/23 00:11:53;;;;;;;2.07;1.87;;;13.00;99.90;;;;;;5114237;28;20884;-60
2023/10/23 00:14:20;;;;;;;1.77;1.67;;;13.00;99.90;;;;;;5114134;28;20819;-61
2023/10/23 00:16:46;;;;;;;2.57;2.20;;;13.00;99.90;;;;;;5114041;28;20442;-60
2023/10/23 00:19:13;;;;;;;5.67;1.77;;;13.00;99.90;;;;;;5114170;28;20572;-60
2023/10/23 00:21:39;;;;;;;1.97;1.50;;;12.90;99.90;;;;;;5114115;28;20533;-60
2023/10/23 00:24:06;;;;;;;1.93;1.83;;;12.90;99.90;;;;;;5114037;28;20438;-60
2023/10/23 00:26:33;;;;;;;1.90;1.80;;;12.90;99.90;;;;;;5114025;28;20450;-60
2023/10/23 00:29:01;;;;;;;2.77;2.00;;;12.90;99.90;;;;;;5113188;28;20541;-60
2023/10/23 00:31:28;;;;;;;2.10;1.67;;;12.80;99.90;;;;;;5114169;28;20430;-60
2023/10/23 00:33:54;;;;;;;1.77;1.50;;;12.80;99.90;;;;;;5113714;28;20438;-60
2023/10/23 00:36:21;;;;;;;2.23;1.50;;;12.80;99.90;;;;;;5113890;28;20540;-60
2023/10/23 00:38:47;;;;;;;2.67;2.27;;;12.80;99.90;;;;;;5113776;28;20866;-60
2023/10/23 00:41:14;;;;;;;1.90;1.80;;;12.80;99.90;;;;;;5113758;28;20529;-60
2023/10/23 00:43:40;;;;;;;2.60;2.40;;;12.70;99.90;;;;;;5113480;28;20448;-60
2023/10/23 00:46:12;;;;;;;1.80;1.70;;;12.70;99.90;;;;;;5113830;28;20452;-60
2023/10/23 00:48:40;;;;;;;4.80;1.77;;;12.60;99.90;;;;;;5113759;28;20779;-60
2023/10/23 00:51:07;;;;;;;1.90;1.47;;;12.60;99.90;;;;;;5113670;28;20873;-60
2023/10/23 00:53:36;;;;;;;1.93;1.67;;;12.60;99.90;;;;;;5113623;28;20441;-60
2023/10/23 00:56:04;;;;;;;2.13;1.70;;;12.60;99.90;;;;;;5113422;28;20987;-60
2023/10/23 00:58:32;;;;;;;2.53;1.67;;;12.50;99.90;;;;;;5113413;28;20941;-60
2023/10/23 01:01:00;;;;;;;5.03;1.97;;;12.50;99.90;;;;;;5113521;28;20766;-60
2023/10/23 01:03:29;;;;;;;2.07;1.87;;;12.50;99.90;;;;;;5113770;28;20441;-60
2023/10/23 01:05:55;;;;;;;1.87;1.77;;;12.50;99.90;;;;;;5113589;28;20547;-60
2023/10/23 01:08:22;;;;;;;2.70;1.73;;;12.50;99.90;;;;;;5113469;28;20528;-60
2023/10/23 01:10:48;;;;;;;2.20;1.77;;;12.50;99.90;;;;;;5113296;28;20445;-60
2023/10/23 01:13:15;;;;;;;1.80;1.70;;;12.40;99.90;;;;;;5113601;28;20757;-60
2023/10/23 01:15:41;;;;;;;2.10;1.90;;;12.40;99.90;;;;;;5113643;28;20537;-60
2023/10/23 01:18:08;;;;;;;2.63;1.90;;;12.40;99.90;;;;;;5113479;28;20442;-60
2023/10/23 01:20:36;;;;;;;1.70;1.60;;;12.40;99.90;;;;;;5113311;28;20840;-60
2023/10/23 01:23:03;;;;;;;2.10;2.00;;;12.30;99.90;;;;;;5113364;28;20441;-60
2023/10/23 01:25:31;;;;;;;4.60;1.70;;;12.40;99.90;;;;;;5113212;28;20548;-60
2023/10/23 01:27:57;;;;;;;2.30;2.10;;;12.40;99.90;;;;;;5113354;28;21004;-60
2023/10/23 01:30:24;;;;;;;4.00;2.60;;;12.30;99.90;;;;;;5113558;28;20498;-60
2023/10/23 01:32:50;;;;;;;4.07;2.17;;;12.30;99.90;;;;;;5113059;28;20940;-60
2023/10/23 01:35:17;;;;;;;2.57;1.67;;;12.30;99.90;;;;;;5113618;28;20857;-60
2023/10/23 01:37:45;;;;;;;3.50;1.93;;;12.30;99.90;;;;;;5113141;28;20477;-60
2023/10/23 01:40:12;;;;;;;2.00;1.80;;;12.30;99.90;;;;;;5115751;28;20477;-60
2023/10/23 01:42:40;;;;;;;2.80;1.80;;;12.20;99.90;;;;;;5117294;28;20631;-61
2023/10/23 01:45:08;;;;;;;2.60;1.40;;;12.20;99.90;;;;;;5117024;28;21010;-60
2023/10/23 01:47:34;;;;;;;2.47;1.67;;;12.20;99.90;;;;;;5117138;27;20445;-60
2023/10/23 01:50:01;;;;;;;1.83;1.73;;;12.10;99.90;;;;;;5116984;28;20446;-60
2023/10/23 01:52:28;;;;;;;1.60;1.50;;;12.10;99.90;;;;;;5116927;28;20866;-60
2023/10/23 01:54:54;;;;;;;3.30;1.87;;;12.10;99.90;;;;;;5117117;28;20448;-60
2023/10/23 01:57:21;;;;;;;2.13;2.03;;;12.10;99.90;;;;;;5116986;28;20548;-60
2023/10/23 01:59:48;;;;;;;3.50;1.47;;;12.00;99.90;;;;;;5116890;28;20483;-60
2023/10/23 02:02:15;;;;;;;3.80;2.47;;;12.00;99.90;;;;;;5116809;28;20455;-60
2023/10/23 02:04:41;;;;;;;1.70;1.57;;;12.00;99.90;;;;;;5116692;28;20452;-60
2023/10/23 02:07:08;;;;;;;3.93;2.27;;;12.00;99.90;;;;;;5116578;28;20536;-60
2023/10/23 02:09:34;;;;;;;2.40;2.20;;;12.00;99.90;;;;;;5116559;28;20674;-60
2023/10/23 02:12:01;;;;;;;3.87;2.43;;;12.00;99.90;;;;;;5116688;28;20540;-60
2023/10/23 02:14:28;;;;;;;3.90;1.40;;;11.90;99.90;;;;;;5116568;28;20921;-60
2023/10/23 02:16:56;;;;;;;2.97;1.80;;;11.90;99.90;;;;;;5116581;28;20532;-60
2023/10/23 02:19:22;;;;;;;1.80;1.70;;;11.80;99.90;;;;;;5116281;28;20536;-60
2023/10/23 02:21:50;;;;;;;2.87;1.50;;;11.80;99.90;;;;;;5116545;28;20963;-60
2023/10/23 02:24:16;;;;;;;2.03;1.77;;;11.80;99.90;;;;;;5116435;28;20796;-61
2023/10/23 02:26:43;;;;;;;2.80;1.93;;;11.80;99.90;;;;;;5116549;28;20532;-60
2023/10/23 02:29:09;;;;;;;2.20;2.00;;;11.70;99.90;;;;;;5116307;28;20442;-60
2023/10/23 02:31:38;;;;;;;5.07;2.00;;;11.70;99.90;;;;;;5116161;28;20442;-60
2023/10/23 02:34:06;;;;;;;2.23;1.93;;;11.80;99.90;;;;;;5116140;28;20851;-60
2023/10/23 02:36:33;;;;;;;2.03;1.93;;;11.80;99.90;;;;;;5116245;28;20453;-60
2023/10/23 02:38:59;;;;;;;2.67;2.00;;;11.80;99.90;;;;;;5116142;28;20448;-60
2023/10/23 02:41:26;;;;;;;2.57;2.10;;;11.80;99.90;;;;;;5115945;28;20473;-60
2023/10/23 02:43:52;;;;;;;3.57;1.80;;;11.80;99.90;;;;;;5115979;28;20445;-60
2023/10/23 02:46:20;;;;;;;2.03;1.83;;;11.80;99.90;;;;;;5115977;28;20533;-60
2023/10/23 02:48:46;;;;;;;2.00;1.73;;;11.80;99.90;;;;;;5115789;28;20484;-60
2023/10/23 02:51:14;;;;;;;2.13;1.80;;;11.80;99.90;;;;;;5115182;28;20457;-60
2023/10/23 02:53:40;;;;;;;2.43;1.77;;;11.80;99.90;;;;;;5115805;28;20444;-60
2023/10/23 02:56:10;;;;;;;1.97;1.87;;;11.80;99.90;;;;;;5115752;28;20540;-60
2023/10/23 02:58:37;;;;;;;3.90;1.90;;;11.70;99.90;;;;;;5116011;28;20532;-60
2023/10/23 03:01:13;;;;;;;2.70;2.37;;;11.70;99.90;;;;;;5115458;28;20481;-60
2023/10/23 03:03:40;;;;;;;2.43;2.13;;;11.70;99.90;;;;;;5115618;28;20442;-60
2023/10/23 03:06:06;;;;;;;2.77;1.87;;;11.60;99.90;;;;;;5115645;28;20445;-60
2023/10/23 03:08:34;;;;;;;2.70;2.27;;;11.50;99.90;;;;;;5115586;28;20444;-60
2023/10/23 03:11:01;;;;;;;3.17;2.03;;;11.50;99.90;;;;;;5115419;28;20438;-60
2023/10/23 03:13:27;;;;;;;2.20;2.00;;;11.40;99.90;;;;;;5115362;28;20440;-60
2023/10/23 03:15:54;;;;;;;4.67;2.20;;;11.20;99.90;;;;;;5115231;28;20528;-61
2023/10/23 03:18:21;;;;;;;3.07;2.00;;;11.10;99.90;;;;;;5115464;28;20849;-60
2023/10/23 03:20:47;;;;;;;2.10;1.70;;;11.10;99.90;;;;;;5115253;28;20566;-60
2023/10/23 03:23:14;;;;;;;3.37;2.23;;;11.10;99.90;;;;;;5115347;28;20503;-60
2023/10/23 03:25:42;;;;;;;5.80;1.63;;;11.10;99.90;;;;;;5115055;28;20442;-60
2023/10/23 03:28:09;;;;;;;2.77;1.77;;;11.10;99.90;;;;;;5115073;28;20881;-60
2023/10/23 03:30:35;;;;;;;1.80;1.70;;;11.10;99.90;;;;;;5115473;28;20537;-60
2023/10/23 03:33:02;;;;;;;4.97;2.13;;;11.00;99.90;;;;;;5115115;28;20442;-60
2023/10/23 03:35:29;;;;;;;6.43;2.13;;;11.00;99.90;;;;;;5115005;28;20537;-60
2023/10/23 03:37:56;;;;;;;2.30;1.70;;;11.00;99.90;;;;;;5114951;28;20439;-60
2023/10/23 03:40:22;;;;;;;5.70;1.90;;;11.00;99.90;;;;;;5114804;28;20557;-60
2023/10/23 03:42:52;;;;;;;5.17;2.07;;;10.90;99.90;;;;;;5114692;28;20528;-60
2023/10/23 03:45:18;;;;;;;2.67;2.47;;;10.80;99.90;;;;;;5114757;28;20466;-60
2023/10/23 03:47:45;;;;;;;3.07;2.10;;;10.70;99.90;;;;;;5114804;28;20897;-60
2023/10/23 03:50:11;;;;;;;3.83;1.90;;;10.70;99.90;;;;;;5114738;28;20468;-60
2023/10/23 03:52:38;;;;;;;2.67;2.13;;;10.70;99.90;;;;;;5114602;28;20441;-60
2023/10/23 03:55:05;;;;;;;5.63;2.60;;;10.60;99.90;;;;;;5114574;28;20445;-60
2023/10/23 03:57:31;;;;;;;1.90;1.80;;;10.50;99.90;;;;;;5114425;28;20530;-60
2023/10/23 03:59:59;;;;;;;5.97;1.70;;;10.60;99.90;;;;;;5114519;28;20572;-60
2023/10/23 04:02:26;;;;;;;2.27;2.07;;;10.70;99.90;;;;;;5113616;28;20452;-60
2023/10/23 04:04:52;;;;;;;3.53;1.70;;;10.60;99.90;;;;;;5114237;28;20941;-60
2023/10/23 04:07:19;;;;;;;3.00;2.50;;;10.60;99.90;;;;;;5114536;28;20933;-61
2023/10/23 04:09:45;;;;;;;3.63;2.03;;;10.60;99.90;;;;;;5114201;28;20500;-60
2023/10/23 04:12:12;;;;;;;2.50;1.70;;;10.70;99.90;;;;;;5114023;28;20450;-60
2023/10/23 04:14:38;;;;;;;4.73;1.87;;;10.70;99.90;;;;;;5114263;28;20445;-60
2023/10/23 04:17:06;;;;;;;6.27;2.37;;;10.70;99.90;;;;;;5114203;28;20445;-60
2023/10/23 04:19:32;;;;;;;3.50;1.93;;;10.70;99.90;;;;;;5114448;28;20530;-60
2023/10/23 04:21:59;;;;;;;3.47;2.17;;;10.70;99.90;;;;;;5113947;28;20565;-60
2023/10/23 04:24:25;;;;;;;6.33;2.10;;;10.70;99.90;;;;;;5114009;28;20448;-60
2023/10/23 04:26:52;;;;;;;4.17;2.20;;;10.70;99.90;;;;;;5114355;28;20438;-60
2023/10/23 04:29:18;;;;;;;1.77;1.67;;;10.80;99.90;;;;;;5114001;28;20485;-60
2023/10/23 04:31:45;;;;;;;4.87;2.00;;;10.80;99.90;;;;;;5113943;28;20444;-60
2023/10/23 04:34:14;;;;;;;4.67;2.70;;;10.80;99.90;;;;;;5113878;28;20440;-60
2023/10/23 04:36:40;;;;;;;5.10;2.47;;;10.80;99.90;;;;;;5113773;28;20438;-60
2023/10/23 04:39:07;;;;;;;3.17;2.80;;;10.80;99.90;;;;;;5113699;28;20524;-60
2023/10/23 04:41:33;;;;;;;3.00;2.47;;;10.60;99.90;;;;;;5113745;28;20481;-60
2023/10/23 04:44:00;;;;;;;3.47;2.60;;;10.60;99.90;;;;;;5113419;28;21035;-60
2023/10/23 04:46:26;;;;;;;2.23;2.13;;;10.60;99.90;;;;;;5113670;28;20452;-61
2023/10/23 04:48:53;;;;;;;3.90;2.00;;;10.60;99.90;;;;;;5113684;28;20532;-60
2023/10/23 04:51:21;;;;;;;4.13;2.30;;;10.60;99.90;;;;;;5113521;28;20530;-60
2023/10/23 04:53:47;;;;;;;3.40;2.53;;;10.60;99.90;;;;;;5113646;28;20487;-60
2023/10/23 04:56:14;;;;;;;3.50;2.60;;;10.50;99.90;;;;;;5113737;28;20448;-60
2023/10/23 04:58:40;;;;;;;2.17;1.97;;;10.50;99.90;;;;;;5113911;28;20525;-59
2023/10/23 05:01:15;;;;;;;5.40;2.03;;;10.40;99.90;;;;;;5113435;28;20481;-59
2023/10/23 05:03:42;;;;;;;6.50;2.37;;;10.30;99.90;;;;;;5113387;28;20448;-59
2023/10/23 05:06:08;;;;;;;2.07;1.90;;;10.10;99.90;;;;;;5113295;28;20445;-59
2023/10/23 05:08:36;;;;;;;3.63;2.50;;;10.10;99.90;;;;;;5113893;28;20532;-59
2023/10/23 05:11:06;;;;;;;5.73;2.50;;;10.00;99.90;;;;;;5113524;28;20450;-59
2023/10/23 05:13:33;;;;;;;4.60;2.27;;;10.00;99.90;;;;;;5113541;28;20446;-59
2023/10/23 05:16:04;;;;;;;3.47;2.13;;;9.90;99.90;;;;;;5117644;28;20528;-59
2023/10/23 05:18:30;;;;;;;2.87;2.67;;;10.00;99.90;;;;;;5117572;28;20452;-59
2023/10/23 05:20:57;;;;;;;4.03;3.63;;;10.00;99.90;;;;;;5117456;28;21057;-59
2023/10/23 05:23:23;;;;;;;7.43;2.60;;;10.00;99.90;;;;;;5117844;28;20540;-60
2023/10/23 05:25:51;;;;;;;6.27;2.70;;;10.00;99.90;;;;;;5117507;28;20438;-59
2023/10/23 05:28:18;;;;;;;3.73;2.40;;;10.00;99.90;;;;;;5117457;28;20547;-59
2023/10/23 05:30:44;;;;;;;2.70;2.50;;;10.00;99.90;;;;;;5117433;28;20491;-59
2023/10/23 05:33:11;;;;;;;7.17;3.27;;;10.00;99.90;;;;;;5117211;28;20444;-59
2023/10/23 05:35:37;;;;;;;3.60;2.33;;;10.00;99.90;;;;;;5117428;28;20533;-59
2023/10/23 05:38:04;;;;;;;3.47;3.03;;;10.10;99.90;;;;;;5117364;28;20532;-60
2023/10/23 05:40:30;;;;;;;3.60;3.33;;;10.10;99.90;;;;;;5117175;28;20469;-59
2023/10/23 05:42:58;;;;;;;3.23;2.80;;;10.20;99.90;;;;;;5117126;28;20881;-59
2023/10/23 05:45:24;;;;;;;5.13;2.60;;;10.20;99.90;;;;;;5116755;28;20474;-59
2023/10/23 05:47:51;;;;;;;7.63;2.53;;;10.20;99.90;;;;;;5116844;28;20532;-59
2023/10/23 05:50:17;;;;;;;4.30;3.10;;;10.10;99.90;;;;;;5117017;28;20541;-59
2023/10/23 05:52:44;;;;;;;6.07;3.43;;;10.10;99.90;;;;;;5116912;28;20445;-59
2023/10/23 05:55:11;;;;;;;2.93;2.73;;;10.00;99.90;;;;;;5116703;28;20508;-59
2023/10/23 05:57:37;;;;;;;3.40;3.03;;;10.00;99.90;;;;;;5116868;28;20437;-59
2023/10/23 06:00:08;;;;;;;5.20;3.50;;;10.00;99.90;;;;;;5116763;28;20526;-59
2023/10/23 06:02:35;;;;;;;4.00;2.80;;;10.10;99.90;;;;;;5116504;28;20477;-59
2023/10/23 06:05:01;;;;;;;2.87;2.67;;;10.10;99.90;;;;;;5116768;28;20441;-59
2023/10/23 06:07:29;;;;;;;2.60;2.40;;;10.10;99.90;;;;;;5116615;28;20442;-59
2023/10/23 06:09:56;;;;;;;3.73;3.10;;;10.10;99.90;;;;;;5116475;28;20527;-59
2023/10/23 06:12:23;;;;;;;5.33;4.00;;;10.10;99.90;;;;;;5116545;28;20450;-59
2023/10/23 06:14:50;;;;;;;4.57;3.70;;;10.10;99.90;;;;;;5116387;28;20449;-59
2023/10/23 06:17:18;;;;;;;5.43;4.73;;;10.10;99.90;;;;;;5116590;28;20441;-59
2023/10/23 06:19:44;;;;;;;5.30;3.40;;;10.00;99.90;;;;;;5116642;28;20528;-59
2023/10/23 06:22:11;;;;;;;8.67;3.90;;;9.90;99.90;;;;;;5116309;28;20562;-59
2023/10/23 06:24:37;;;;;;;7.70;3.73;;;9.90;99.90;;;;;;5116343;28;20533;-59
2023/10/23 06:27:04;;;;;;;6.73;3.37;;;10.00;99.90;;;;;;5114959;28;20479;-59
2023/10/23 06:29:30;;;;;;;8.13;3.50;;;10.10;99.90;;;;;;5115923;28;20941;-59
2023/10/23 06:31:57;;;;;;;4.00;3.10;;;10.10;99.90;;;;;;5116091;28;21008;-59
2023/10/23 06:34:25;;;;;;;3.43;3.23;;;10.20;99.90;;;;;;5116161;28;20801;-59
2023/10/23 06:36:51;;;;;;;5.43;3.17;;;10.50;99.90;;;;;;5116121;28;20444;-59
2023/10/23 06:39:18;;;;;;;15.10;3.80;;;10.80;99.90;;;;;;5115889;28;20524;-59
2023/10/23 06:41:44;;;;;;;4.60;3.37;;;11.00;99.90;;;;;;5115672;28;20477;-59
2023/10/23 06:44:11;;;;;;;7.30;2.93;;;11.30;99.90;;;;;;5115470;28;20472;-59
2023/10/23 06:46:37;;;;;;;3.63;3.00;;;11.40;99.90;;;;;;5115737;28;20533;-59
2023/10/23 06:49:04;;;;;;;6.23;3.73;;;11.60;99.90;;;;;;5115761;28;20446;-59
2023/10/23 06:51:32;;;;;;;6.13;3.03;;;11.80;99.90;;;;;;5115661;28;20528;-60
2023/10/23 06:53:59;;;;;;;4.50;3.23;;;11.90;99.90;;;;;;5115596;28;20876;-60
2023/10/23 06:56:25;;;;;;;4.70;4.00;;;12.00;99.90;;;;;;5115404;28;20441;-59
2023/10/23 06:58:52;;;;;;;3.80;3.40;;;12.00;99.90;;;;;;5115645;28;20812;-59
2023/10/23 07:01:18;;;;;;;4.90;4.50;;;12.00;99.90;;;;;;5115721;28;20503;-59
2023/10/23 07:03:45;;;;;;;18.33;7.37;;;12.10;99.90;;;;;;5115660;28;20503;-59
2023/10/23 07:06:11;;;;;;;9.93;7.30;;;12.20;99.90;;;;;;5115143;28;20445;-60
2023/10/23 07:08:39;;;;;;;11.93;6.70;;;12.20;99.90;;;;;;5115266;28;20807;-59
2023/10/23 07:11:13;;;;;;;9.17;6.47;;;12.20;99.90;;;;;;5115317;28;20442;-62
2023/10/23 07:13:39;;;;;;;8.63;5.43;;;12.00;99.90;;;;;;5115332;28;20530;-61
2023/10/23 07:16:06;;;;;;;5.37;4.90;;;12.10;99.90;;;;;;5115151;28;20446;-62
2023/10/23 07:18:33;;;;;;;8.93;5.47;;;12.20;99.90;;;;;;5115238;28;20872;-59
2023/10/23 07:21:00;;;;;;;4.60;4.23;;;12.20;99.90;;;;;;5114908;28;20448;-59
2023/10/23 07:23:28;;;;;;;4.70;4.20;;;12.30;99.90;;;;;;5115023;28;20441;-58
2023/10/23 07:26:10;;;;;;;5.63;5.00;;;12.40;99.90;;;;;;5114950;28;20849;-61
2023/10/23 07:28:38;;;;;;;4.50;3.73;;;12.30;99.90;;;;;;5114759;28;20464;-61
2023/10/23 07:31:04;;;;;;;4.17;3.77;;;12.40;99.90;;;;;;5114929;28;20481;-60
2023/10/23 07:33:31;;;;;;;3.90;3.47;;;12.50;99.90;;;;;;5114807;28;20438;-59
2023/10/23 07:36:02;;;;;;;4.43;4.03;;;12.60;99.90;;;;;;5114761;28;20459;-59
2023/10/23 07:38:29;;;;;;;3.67;3.37;;;12.60;99.90;;;;;;5114518;28;20494;-59
2023/10/23 07:40:55;;;;;;;3.40;3.10;;;12.70;99.90;;;;;;5114818;28;20863;-60
2023/10/23 07:43:23;;;;;;;4.47;4.03;;;12.70;99.90;;;;;;5114784;28;20473;-60
2023/10/23 07:45:50;;;;;;;3.70;3.40;;;12.80;99.90;;;;;;5114557;28;20832;-60
2023/10/23 07:48:17;;;;;;;4.00;3.70;;;12.80;99.90;;;;;;5114446;28;20446;-60
2023/10/23 07:50:43;;;;;;;4.03;3.60;;;12.80;99.90;;;;;;5114413;28;20968;-61
2023/10/23 07:53:10;;;;;;;8.43;4.10;;;12.90;99.90;;;;;;5114251;28;20455;-61
2023/10/23 07:55:36;;;;;;;7.07;4.10;;;13.00;99.90;;;;;;5114480;28;20442;-61
2023/10/23 07:58:03;;;;;;;4.40;4.00;;;13.10;99.90;;;;;;5114442;28;20452;-62
2023/10/23 08:00:31;;;;;;;3.83;3.37;;;13.10;99.90;;;;;;5114510;28;20442;-62
2023/10/23 08:02:57;;;;;;;3.90;3.60;;;13.20;99.90;;;;;;5114166;28;20499;-60
2023/10/23 08:05:24;;;;;;;6.13;3.90;;;13.30;99.90;;;;;;5114106;28;20548;-63
2023/10/23 08:07:50;;;;;;;5.37;4.30;;;13.30;99.90;;;;;;5114374;28;20479;-60
2023/10/23 08:10:17;;;;;;;5.50;3.93;;;13.30;99.90;;;;;;5114172;28;20528;-66
2023/10/23 08:12:46;;;;;;;4.40;4.00;;;13.30;99.90;;;;;;5114111;28;20449;-60
2023/10/23 08:15:12;;;;;;;4.87;4.23;;;13.40;99.90;;;;;;5113992;28;20448;-59
2023/10/23 08:17:40;;;;;;;4.03;3.70;;;13.40;99.90;;;;;;5113843;28;20446;-60
2023/10/23 08:20:08;;;;;;;4.40;4.00;;;13.40;99.90;;;;;;5113724;28;20571;-60
2023/10/23 08:22:35;;;;;;;4.43;3.93;;;13.40;99.90;;;;;;5113993;28;20491;-59
2023/10/23 08:25:02;;;;;;;5.80;4.63;;;13.50;99.90;;;;;;5113953;28;20464;-60
2023/10/23 08:27:28;;;;;;;4.63;3.90;;;13.50;99.90;;;;;;5113871;28;20442;-59
2023/10/23 08:29:55;;;;;;;4.30;3.97;;;13.50;99.90;;;;;;5113831;28;20452;-59
2023/10/23 08:32:21;;;;;;;5.20;4.17;;;13.60;99.90;;;;;;5113748;28;20446;-59
2023/10/23 08:34:52;;;;;;;4.10;3.80;;;13.70;99.90;;;;;;5113656;28;20452;-60
2023/10/23 08:37:18;;;;;;;5.73;4.83;;;13.80;99.90;;;;;;5113958;28;20836;-60
2023/10/23 08:39:45;;;;;;;9.53;4.90;;;13.80;99.90;;;;;;5113979;28;20437;-60
2023/10/23 08:42:11;;;;;;;5.53;5.03;;;13.80;99.90;;;;;;5113500;28;20461;-60
2023/10/23 08:44:38;;;;;;;6.40;5.83;;;13.80;99.90;;;;;;5113081;28;20901;-60
2023/10/23 08:47:05;;;;;;;7.33;5.20;;;13.70;99.90;;;;;;5113349;28;20452;-60
2023/10/23 08:49:32;;;;;;;6.40;4.93;;;13.80;99.90;;;;;;5113045;28;20442;-60
2023/10/23 08:52:02;;;;;;;6.10;5.37;;;13.80;99.90;;;;;;5113578;28;20810;-60
2023/10/23 08:54:29;;;;;;;5.83;5.23;;;13.80;99.90;;;;;;5113487;28;20442;-60
2023/10/23 08:56:59;;;;;;;5.33;4.83;;;13.80;99.90;;;;;;5113698;28;20928;-60
2023/10/23 08:59:27;;;;;;;6.13;4.57;;;13.90;99.90;;;;;;5113413;28;20438;-61
2023/10/23 09:01:54;;;;;;;5.97;5.47;;;13.90;99.90;;;;;;5113122;28;20606;-60
2023/10/23 09:04:20;;;;;;;5.83;5.17;;;14.00;99.90;;;;;;5113310;28;20537;-61
2023/10/23 09:06:47;;;;;;;6.17;5.10;;;13.90;99.90;;;;;;5113415;28;20827;-60
2023/10/23 09:09:16;;;;;;;7.50;4.90;;;14.00;99.90;;;;;;5113319;28;20442;-61
2023/10/23 09:11:44;;;;;;;6.80;5.10;;;13.90;99.90;;;;;;5113153;28;20540;-63
2023/10/23 09:14:12;;;;;;;5.50;4.87;;;14.00;99.90;;;;;;5113198;28;20477;-60
2023/10/23 09:16:39;;;;;;;5.63;5.07;;;14.00;99.90;;;;;;5113369;28;20477;-61
2023/10/23 09:19:05;;;;;;;8.03;5.83;;;14.00;99.90;;;;;;5113234;28;20532;-61
2023/10/23 09:21:32;;;;;;;6.20;5.67;;;14.20;99.90;;;;;;5113255;28;20477;-61
2023/10/23 09:24:03;;;;;;;6.73;5.97;;;14.30;99.90;;;;;;5113191;28;20442;-60
2023/10/23 09:26:31;;;;;;;5.87;5.40;;;14.40;99.90;;;;;;5113090;28;20471;-61
2023/10/23 09:28:57;;;;;;;6.13;5.63;;;14.50;99.90;;;;;;5113121;28;20441;-60
2023/10/23 09:31:24;;;;;;;5.80;5.30;;;14.60;99.90;;;;;;5113142;28;20488;-60
2023/10/23 09:33:51;;;;;;;5.90;5.30;;;14.70;99.90;;;;;;5113128;28;21015;-59
2023/10/23 09:36:18;;;;;;;5.77;5.27;;;14.80;99.90;;;;;;5113020;28;20445;-63
2023/10/23 09:38:56;;;;;;;5.63;5.10;;;14.80;99.90;;;;;;5113023;28;20991;-61
2023/10/23 09:41:23;;;;;;;6.83;5.67;;;14.90;99.90;;;;;;5112799;28;20941;-61
2023/10/23 09:43:51;;;;;;;7.13;5.63;;;15.00;99.90;;;;;;5112779;28;20582;-60
2023/10/23 09:46:20;;;;;;;6.00;5.40;;;15.00;99.90;;;;;;5113181;28;20540;-60
2023/10/23 09:48:47;;;;;;;6.07;5.20;;;15.00;99.90;;;;;;5112982;28;20532;-60
2023/10/23 09:51:15;;;;;;;5.90;5.30;;;15.00;99.90;;;;;;5112934;28;20445;-60
2023/10/23 09:53:45;;;;;;;6.43;5.83;;;15.10;99.90;;;;;;5112871;28;20518;-60
2023/10/23 09:56:13;;;;;;;6.43;5.13;;;15.00;99.90;;;;;;5112955;28;20529;-60
2023/10/23 09:58:45;;;;;;;6.53;5.93;;;15.10;99.90;;;;;;5112974;28;20442;-60
2023/10/23 10:01:15;;;;;;;6.27;5.67;;;15.10;99.90;;;;;;5115563;28;20540;-60
2023/10/23 10:03:43;;;;;;;6.43;5.83;;;15.20;99.90;;;;;;5116482;28;20488;-61
2023/10/23 10:06:14;;;;;;;7.00;5.87;;;15.30;99.90;;;;;;5116299;28;20529;-62
2023/10/23 10:08:44;;;;;;;6.10;5.60;;;15.20;99.90;;;;;;5116531;28;20441;-60
2023/10/23 10:11:11;;;;;;;6.37;5.77;;;15.10;99.90;;;;;;5116490;28;20474;-60
2023/10/23 10:13:38;;;;;;;9.30;5.40;;;15.10;99.90;;;;;;5116434;28;20532;-59
2023/10/23 10:16:06;;;;;;;6.43;5.30;;;15.20;99.90;;;;;;5116367;28;20871;-59
2023/10/23 10:18:36;;;;;;;6.07;5.50;;;15.40;99.90;;;;;;5116566;28;20472;-59
2023/10/23 10:21:09;;;;;;;6.70;4.43;;;15.60;99.90;;;;;;5116131;28;20437;-59
2023/10/23 10:23:36;;;;;;;4.20;3.90;;;15.70;99.90;;;;;;5116183;28;20500;-59
2023/10/23 10:26:04;;;;;;;4.40;4.07;;;15.90;99.90;;;;;;5116055;28;20441;-59
2023/10/23 10:28:31;;;;;;;5.03;3.87;;;16.00;99.90;;;;;;5116172;28;20563;-63
2023/10/23 10:30:57;;;;;;;4.43;4.03;;;16.20;99.90;;;;;;5116348;28;20446;-64
2023/10/23 10:33:26;;;;;;;6.33;4.73;;;16.30;99.90;;;;;;5115888;28;20879;-61
2023/10/23 10:35:58;;;;;;;6.80;4.60;;;16.10;99.90;;;;;;5115746;28;20532;-60
2023/10/23 10:38:26;;;;;;;4.63;4.10;;;16.10;99.90;;;;;;5115983;28;20557;-66
2023/10/23 10:40:57;;;;;;;3.80;3.50;;;16.10;99.90;;;;;;5115858;28;20537;-62
2023/10/23 10:43:25;;;;;;;4.43;3.87;;;16.20;99.90;;;;;;5115691;28;20477;-61
2023/10/23 10:45:51;;;;;;;7.80;3.77;;;16.40;99.90;;;;;;5115794;28;20556;-59
2023/10/23 10:48:18;;;;;;;4.60;3.43;;;16.50;99.90;;;;;;5115999;28;20506;-59
2023/10/23 10:50:46;;;;;;;3.37;3.17;;;16.60;99.90;;;;;;5116056;28;20533;-59
2023/10/23 10:53:15;;;;;;;3.80;2.70;;;16.70;99.90;;;;;;5115581;28;20520;-60
2023/10/23 10:55:45;;;;;;;3.93;3.63;;;16.80;99.90;;;;;;5115535;28;20445;-60
2023/10/23 10:58:12;;;;;;;4.43;4.00;;;16.90;99.90;;;;;;5115420;28;20441;-60
2023/10/23 11:00:39;;;;;;;5.50;4.10;;;16.60;99.90;;;;;;5115765;28;20525;-59
2023/10/23 11:03:06;;;;;;;5.77;3.57;;;16.50;99.90;;;;;;5115706;28;20534;-62
2023/10/23 11:05:33;;;;;;;4.03;3.70;;;16.50;99.90;;;;;;5115475;28;20529;-61
2023/10/23 11:08:00;;;;;;;3.83;3.43;;;16.50;99.90;;;;;;5115609;28;20441;-62
2023/10/23 11:10:28;;;;;;;3.27;3.00;;;16.50;99.90;;;;;;5115302;28;20442;-61
2023/10/23 11:12:54;;;;;;;2.77;2.67;;;16.50;99.90;;;;;;5114845;28;20536;-61
2023/10/23 11:15:21;;;;;;;2.50;2.17;;;16.50;99.90;;;;;;5115390;28;20477;-61
2023/10/23 11:17:47;;;;;;;3.87;2.90;;;16.50;99.90;;;;;;5115190;28;20442;-62
2023/10/23 11:20:15;;;;;;;4.10;2.83;;;16.50;99.90;;;;;;5115432;28;20477;-61
2023/10/23 11:22:43;;;;;;;3.53;3.33;;;16.40;99.90;;;;;;5114901;28;20465;-60
2023/10/23 11:25:09;;;;;;;4.43;2.70;;;16.40;99.90;;;;;;5115071;28;20449;-62
2023/10/23 11:27:38;;;;;;;3.27;2.97;;;16.30;99.90;;;;;;5114996;28;20782;-62
2023/10/23 11:30:06;;;;;;;3.97;3.27;;;16.30;99.90;;;;;;5114461;28;20477;-63
2023/10/23 11:32:33;;;;;;;3.70;3.23;;;16.30;99.90;;;;;;5094467;28;20488;-57
2023/10/23 11:35:03;;;;;;;3.13;2.83;;;16.20;99.90;;;;;;5094348;28;20488;-57
2023/10/23 11:37:33;;;;;;;3.17;2.70;;;16.10;99.90;;;;;;5094199;28;20496;-65
2023/10/23 11:40:05;;;;;;;2.60;2.40;;;16.20;99.90;;;;;;5094161;28;20821;-60
2023/10/23 11:42:32;;;;;;;8.20;2.87;;;16.30;99.90;;;;;;5094319;28;20523;-63
2023/10/23 11:45:00;;;;;;;2.00;1.90;;;16.40;99.90;;;;;;5094126;28;20481;-64
2023/10/23 11:47:27;;;;;;;2.90;1.83;;;16.50;99.90;;;;;;5094210;28;20443;-61
2023/10/23 11:49:53;;;;;;;2.17;1.97;;;16.60;99.90;;;;;;5094044;28;20443;-60
2023/10/23 11:52:20;;;;;;;3.33;2.47;;;16.80;99.90;;;;;;5094055;28;20478;-58
2023/10/23 11:54:47;;;;;;;3.43;2.30;;;16.80;99.90;;;;;;5094560;28;20449;-61
2023/10/23 11:57:16;;;;;;;2.90;2.60;;;16.90;99.90;;;;;;5094166;28;20530;-60
2023/10/23 11:59:42;;;;;;;3.80;2.53;;;17.00;99.90;;;;;;5093908;28;20536;-61
2023/10/23 12:02:10;;;;;;;3.30;2.60;;;16.90;99.90;;;;;;5093903;28;21017;-60
2023/10/23 12:04:37;;;;;;;3.20;2.80;;;16.90;99.90;;;;;;5094001;28;20850;-61
2023/10/23 12:07:04;;;;;;;2.30;2.10;;;16.80;99.90;;;;;;5093752;28;20884;-61
2023/10/23 12:09:30;;;;;;;2.20;2.10;;;16.80;99.90;;;;;;5093952;28;20450;-60
2023/10/23 12:11:57;;;;;;;3.60;3.20;;;16.90;99.90;;;;;;5093933;28;20822;-62
2023/10/23 12:14:23;;;;;;;3.13;2.83;;;16.80;99.90;;;;;;5093599;28;20569;-60
2023/10/23 12:16:50;;;;;;;3.83;2.80;;;16.80;99.90;;;;;;5093618;28;21019;-66
2023/10/23 12:19:19;;;;;;;5.33;2.20;;;16.80;99.90;;;;;;5093665;28;20948;-61
2023/10/23 12:21:45;;;;;;;3.60;2.10;;;16.80;99.90;;;;;;5093515;28;20500;-60
2023/10/23 12:24:12;;;;;;;3.50;2.30;;;16.80;99.90;;;;;;5092831;28;20482;-60
2023/10/23 12:26:38;;;;;;;2.40;2.30;;;16.80;99.90;;;;;;5093607;28;20446;-56
2023/10/23 12:29:07;;;;;;;4.17;2.70;;;16.80;99.90;;;;;;5093426;28;20933;-60
2023/10/23 12:31:33;;;;;;;3.20;2.00;;;16.80;99.90;;;;;;5111345;28;20521;-62
2023/10/23 12:34:00;;;;;;;2.33;2.13;;;16.90;99.90;;;;;;5113783;28;20554;-59
2023/10/23 12:36:28;;;;;;;2.17;2.00;;;16.90;99.90;;;;;;5113698;28;20499;-62
2023/10/23 12:38:54;;;;;;;4.17;3.07;;;17.00;99.90;;;;;;5113404;28;20448;-62
2023/10/23 12:41:21;;;;;;;3.20;3.03;;;17.00;99.90;;;;;;5113725;28;20500;-61
2023/10/23 12:43:47;;;;;;;2.93;2.43;;;17.00;99.90;;;;;;5113340;28;20875;-62
2023/10/23 12:46:14;;;;;;;3.38;2.35;;;17.10;99.90;;;;;;5113042;28;20447;-62
2023/10/23 12:48:43;;;;;;;2.90;2.70;;;17.10;99.90;;;;;;5113731;28;20279;-62